sensor_id;sensor_type;location;lat;lon;timestamp;temperature;humidity
41220;DHT22;26951;47.338;9.196;2022-07-23T00:02:43;19.10;74.90
41220;DHT22;26951;47.338;9.196;2022-07-23T00:05:27;19.00;77.00
41220;DHT22;26951;47.338;9.196;2022-07-23T00:08:11;18.90;76.60
41220;DHT22;26951;47.338;9.196;2022-07-23T00:10:55;18.90;75.90
41220;DHT22;26951;47.338;9.196;2022-07-23T00:13:39;18.90;75.70
41220;DHT22;26951;47.338;9.196;2022-07-23T00:16:23;18.90;79.10
41220;DHT22;26951;47.338;9.196;2022-07-23T00:19:07;18.90;77.70
41220;DHT22;26951;47.338;9.196;2022-07-23T00:21:52;18.90;77.70
41220;DHT22;26951;47.338;9.196;2022-07-23T00:24:36;19.00;76.70
41220;DHT22;26951;47.338;9.196;2022-07-23T00:27:20;19.00;76.20
41220;DHT22;26951;47.338;9.196;2022-07-23T00:30:04;18.90;77.60
41220;DHT22;26951;47.338;9.196;2022-07-23T00:32:50;19.00;77.70
41220;DHT22;26951;47.338;9.196;2022-07-23T00:35:37;19.00;74.90
41220;DHT22;26951;47.338;9.196;2022-07-23T00:38:24;18.90;74.20
41220;DHT22;26951;47.338;9.196;2022-07-23T00:41:08;18.90;75.80
41220;DHT22;26951;47.338;9.196;2022-07-23T00:43:52;18.80;76.00
41220;DHT22;26951;47.338;9.196;2022-07-23T00:46:36;18.80;76.30
41220;DHT22;26951;47.338;9.196;2022-07-23T00:49:22;18.80;76.80
41220;DHT22;26951;47.338;9.196;2022-07-23T00:52:06;18.80;76.50
41220;DHT22;26951;47.338;9.196;2022-07-23T00:54:51;18.80;77.70
41220;DHT22;26951;47.338;9.196;2022-07-23T00:57:36;18.80;76.20
41220;DHT22;26951;47.338;9.196;2022-07-23T01:03:05;18.80;75.80
41220;DHT22;26951;47.338;9.196;2022-07-23T01:05:50;18.80;74.90
41220;DHT22;26951;47.338;9.196;2022-07-23T01:08:34;18.80;74.00
41220;DHT22;26951;47.338;9.196;2022-07-23T01:11:18;18.80;75.70
41220;DHT22;26951;47.338;9.196;2022-07-23T01:14:14;18.80;75.70
41220;DHT22;26951;47.338;9.196;2022-07-23T01:16:58;18.80;74.30
41220;DHT22;26951;47.338;9.196;2022-07-23T01:19:42;18.80;74.60
41220;DHT22;26951;47.338;9.196;2022-07-23T01:22:30;18.70;73.60
41220;DHT22;26951;47.338;9.196;2022-07-23T01:25:14;18.70;73.50
41220;DHT22;26951;47.338;9.196;2022-07-23T01:27:58;18.60;74.20
41220;DHT22;26951;47.338;9.196;2022-07-23T01:30:43;18.50;72.90
41220;DHT22;26951;47.338;9.196;2022-07-23T01:33:27;18.50;72.90
41220;DHT22;26951;47.338;9.196;2022-07-23T01:36:11;18.50;73.50
41220;DHT22;26951;47.338;9.196;2022-07-23T01:38:55;18.50;72.80
41220;DHT22;26951;47.338;9.196;2022-07-23T01:41:39;18.40;73.40
41220;DHT22;26951;47.338;9.196;2022-07-23T01:44:24;18.40;73.30
41220;DHT22;26951;47.338;9.196;2022-07-23T01:47:08;18.30;75.20
41220;DHT22;26951;47.338;9.196;2022-07-23T01:49:52;18.30;75.70
41220;DHT22;26951;47.338;9.196;2022-07-23T01:52:37;18.30;74.80
41220;DHT22;26951;47.338;9.196;2022-07-23T01:55:21;18.30;74.00
41220;DHT22;26951;47.338;9.196;2022-07-23T01:58:05;18.30;73.90
41220;DHT22;26951;47.338;9.196;2022-07-23T02:00:49;18.20;74.90
41220;DHT22;26951;47.338;9.196;2022-07-23T02:03:34;18.30;74.90
41220;DHT22;26951;47.338;9.196;2022-07-23T02:06:18;18.20;73.90
41220;DHT22;26951;47.338;9.196;2022-07-23T02:09:02;18.20;73.30
41220;DHT22;26951;47.338;9.196;2022-07-23T02:11:46;18.20;75.00
41220;DHT22;26951;47.338;9.196;2022-07-23T02:14:31;18.20;75.60
41220;DHT22;26951;47.338;9.196;2022-07-23T02:17:15;18.10;73.70
41220;DHT22;26951;47.338;9.196;2022-07-23T02:19:59;18.10;73.80
41220;DHT22;26951;47.338;9.196;2022-07-23T02:22:44;18.10;73.10
41220;DHT22;26951;47.338;9.196;2022-07-23T02:25:28;18.10;73.20
41220;DHT22;26951;47.338;9.196;2022-07-23T02:28:12;18.10;73.10
41220;DHT22;26951;47.338;9.196;2022-07-23T02:30:56;18.00;73.10
41220;DHT22;26951;47.338;9.196;2022-07-23T02:33:41;18.00;73.10
41220;DHT22;26951;47.338;9.196;2022-07-23T02:36:25;17.90;73.80
41220;DHT22;26951;47.338;9.196;2022-07-23T02:39:10;17.90;74.70
41220;DHT22;26951;47.338;9.196;2022-07-23T02:41:54;17.90;74.50
41220;DHT22;26951;47.338;9.196;2022-07-23T02:44:38;17.90;73.40
41220;DHT22;26951;47.338;9.196;2022-07-23T02:47:22;17.90;73.60
41220;DHT22;26951;47.338;9.196;2022-07-23T02:50:06;17.80;74.30
41220;DHT22;26951;47.338;9.196;2022-07-23T02:52:51;17.80;74.10
41220;DHT22;26951;47.338;9.196;2022-07-23T02:55:35;17.80;74.70
41220;DHT22;26951;47.338;9.196;2022-07-23T02:58:19;17.70;75.60
41220;DHT22;26951;47.338;9.196;2022-07-23T03:01:04;17.70;76.60
41220;DHT22;26951;47.338;9.196;2022-07-23T03:03:48;17.70;75.70
41220;DHT22;26951;47.338;9.196;2022-07-23T03:06:32;17.70;76.40
41220;DHT22;26951;47.338;9.196;2022-07-23T03:09:16;17.70;77.10
41220;DHT22;26951;47.338;9.196;2022-07-23T03:12:00;17.80;76.70
41220;DHT22;26951;47.338;9.196;2022-07-23T03:14:44;17.70;78.90
41220;DHT22;26951;47.338;9.196;2022-07-23T03:17:28;17.70;80.10
41220;DHT22;26951;47.338;9.196;2022-07-23T03:20:12;17.70;79.70
41220;DHT22;26951;47.338;9.196;2022-07-23T03:22:57;17.60;79.00
41220;DHT22;26951;47.338;9.196;2022-07-23T03:25:41;17.60;79.40
41220;DHT22;26951;47.338;9.196;2022-07-23T03:28:25;17.70;79.80
41220;DHT22;26951;47.338;9.196;2022-07-23T03:31:09;17.70;78.80
41220;DHT22;26951;47.338;9.196;2022-07-23T03:33:53;17.70;79.40
41220;DHT22;26951;47.338;9.196;2022-07-23T03:36:37;17.80;80.10
41220;DHT22;26951;47.338;9.196;2022-07-23T03:39:21;17.80;80.30
41220;DHT22;26951;47.338;9.196;2022-07-23T03:42:05;17.80;82.70
41220;DHT22;26951;47.338;9.196;2022-07-23T03:44:50;17.80;83.10
41220;DHT22;26951;47.338;9.196;2022-07-23T03:47:34;17.80;83.00
41220;DHT22;26951;47.338;9.196;2022-07-23T03:50:19;17.80;83.40
41220;DHT22;26951;47.338;9.196;2022-07-23T03:53:03;17.80;82.40
41220;DHT22;26951;47.338;9.196;2022-07-23T03:55:48;17.80;81.70
41220;DHT22;26951;47.338;9.196;2022-07-23T03:58:32;17.80;79.80
41220;DHT22;26951;47.338;9.196;2022-07-23T04:01:16;17.80;81.00
41220;DHT22;26951;47.338;9.196;2022-07-23T04:04:00;17.80;79.90
41220;DHT22;26951;47.338;9.196;2022-07-23T04:06:44;17.80;79.60
41220;DHT22;26951;47.338;9.196;2022-07-23T04:09:28;17.80;79.80
41220;DHT22;26951;47.338;9.196;2022-07-23T04:12:13;17.80;79.60
41220;DHT22;26951;47.338;9.196;2022-07-23T04:14:57;17.80;79.40
41220;DHT22;26951;47.338;9.196;2022-07-23T04:17:41;17.90;80.00
41220;DHT22;26951;47.338;9.196;2022-07-23T04:20:27;17.90;79.60
41220;DHT22;26951;47.338;9.196;2022-07-23T04:23:11;17.90;79.40
41220;DHT22;26951;47.338;9.196;2022-07-23T04:25:56;17.90;79.20
41220;DHT22;26951;47.338;9.196;2022-07-23T04:28:40;17.90;79.40
41220;DHT22;26951;47.338;9.196;2022-07-23T04:31:24;17.90;79.80
41220;DHT22;26951;47.338;9.196;2022-07-23T04:34:08;17.90;79.20
41220;DHT22;26951;47.338;9.196;2022-07-23T04:36:53;17.90;79.00
41220;DHT22;26951;47.338;9.196;2022-07-23T04:39:37;17.80;79.00
41220;DHT22;26951;47.338;9.196;2022-07-23T04:42:22;17.90;78.50
41220;DHT22;26951;47.338;9.196;2022-07-23T04:45:06;17.80;78.90
41220;DHT22;26951;47.338;9.196;2022-07-23T04:47:50;17.80;79.10
41220;DHT22;26951;47.338;9.196;2022-07-23T04:50:34;17.90;78.60
41220;DHT22;26951;47.338;9.196;2022-07-23T04:53:19;17.90;79.50
41220;DHT22;26951;47.338;9.196;2022-07-23T04:56:04;17.80;79.20
41220;DHT22;26951;47.338;9.196;2022-07-23T04:58:48;17.80;79.50
41220;DHT22;26951;47.338;9.196;2022-07-23T05:01:32;17.80;79.70
41220;DHT22;26951;47.338;9.196;2022-07-23T05:04:16;17.70;80.10
41220;DHT22;26951;47.338;9.196;2022-07-23T05:07:00;17.70;80.20
41220;DHT22;26951;47.338;9.196;2022-07-23T05:09:44;17.70;79.80
41220;DHT22;26951;47.338;9.196;2022-07-23T05:12:29;17.70;81.10
41220;DHT22;26951;47.338;9.196;2022-07-23T05:15:13;17.70;80.80
41220;DHT22;26951;47.338;9.196;2022-07-23T05:17:58;17.80;81.00
41220;DHT22;26951;47.338;9.196;2022-07-23T05:20:42;17.80;80.70
41220;DHT22;26951;47.338;9.196;2022-07-23T05:23:26;17.80;77.50
41220;DHT22;26951;47.338;9.196;2022-07-23T05:26:11;17.80;77.00
41220;DHT22;26951;47.338;9.196;2022-07-23T05:28:54;17.80;77.00
41220;DHT22;26951;47.338;9.196;2022-07-23T05:31:39;17.80;77.30
41220;DHT22;26951;47.338;9.196;2022-07-23T05:34:23;17.90;78.10
41220;DHT22;26951;47.338;9.196;2022-07-23T05:37:07;17.90;77.30
41220;DHT22;26951;47.338;9.196;2022-07-23T05:39:51;18.00;78.60
41220;DHT22;26951;47.338;9.196;2022-07-23T05:42:36;18.10;80.80
41220;DHT22;26951;47.338;9.196;2022-07-23T05:45:21;18.10;80.70
41220;DHT22;26951;47.338;9.196;2022-07-23T05:48:05;18.20;80.20
41220;DHT22;26951;47.338;9.196;2022-07-23T05:50:49;18.20;78.20
41220;DHT22;26951;47.338;9.196;2022-07-23T05:53:34;18.30;78.80
41220;DHT22;26951;47.338;9.196;2022-07-23T05:56:19;18.40;81.00
41220;DHT22;26951;47.338;9.196;2022-07-23T05:59:03;18.40;81.00
41220;DHT22;26951;47.338;9.196;2022-07-23T06:01:48;18.40;79.80
41220;DHT22;26951;47.338;9.196;2022-07-23T06:04:31;18.40;79.60
41220;DHT22;26951;47.338;9.196;2022-07-23T06:07:16;18.50;79.70
41220;DHT22;26951;47.338;9.196;2022-07-23T06:09:59;18.50;80.40
41220;DHT22;26951;47.338;9.196;2022-07-23T06:12:44;18.60;81.20
41220;DHT22;26951;47.338;9.196;2022-07-23T06:15:28;18.60;81.60
41220;DHT22;26951;47.338;9.196;2022-07-23T06:18:12;18.70;81.30
41220;DHT22;26951;47.338;9.196;2022-07-23T06:20:56;18.70;82.20
41220;DHT22;26951;47.338;9.196;2022-07-23T06:23:41;18.80;81.70
41220;DHT22;26951;47.338;9.196;2022-07-23T06:26:25;18.90;82.50
41220;DHT22;26951;47.338;9.196;2022-07-23T06:29:09;18.90;82.90
41220;DHT22;26951;47.338;9.196;2022-07-23T06:31:53;19.00;82.40
41220;DHT22;26951;47.338;9.196;2022-07-23T06:34:38;19.00;81.50
41220;DHT22;26951;47.338;9.196;2022-07-23T06:37:22;19.00;80.00
41220;DHT22;26951;47.338;9.196;2022-07-23T06:40:06;19.10;80.10
41220;DHT22;26951;47.338;9.196;2022-07-23T06:42:51;19.00;80.40
41220;DHT22;26951;47.338;9.196;2022-07-23T06:45:35;19.00;79.60
41220;DHT22;26951;47.338;9.196;2022-07-23T06:48:19;19.00;80.30
41220;DHT22;26951;47.338;9.196;2022-07-23T06:51:03;19.00;80.70
41220;DHT22;26951;47.338;9.196;2022-07-23T06:53:47;19.00;79.60
41220;DHT22;26951;47.338;9.196;2022-07-23T06:56:31;19.00;81.20
41220;DHT22;26951;47.338;9.196;2022-07-23T06:59:16;19.00;83.10
41220;DHT22;26951;47.338;9.196;2022-07-23T07:02:00;19.00;82.10
41220;DHT22;26951;47.338;9.196;2022-07-23T07:04:44;19.00;81.70
41220;DHT22;26951;47.338;9.196;2022-07-23T07:07:29;19.00;81.20
41220;DHT22;26951;47.338;9.196;2022-07-23T07:10:13;19.00;79.00
41220;DHT22;26951;47.338;9.196;2022-07-23T07:12:57;19.10;79.40
41220;DHT22;26951;47.338;9.196;2022-07-23T07:15:41;19.10;79.50
41220;DHT22;26951;47.338;9.196;2022-07-23T07:18:25;19.10;79.00
41220;DHT22;26951;47.338;9.196;2022-07-23T07:21:11;19.20;79.60
41220;DHT22;26951;47.338;9.196;2022-07-23T07:23:55;19.20;79.60
41220;DHT22;26951;47.338;9.196;2022-07-23T07:26:39;19.20;79.20
41220;DHT22;26951;47.338;9.196;2022-07-23T07:29:23;19.10;79.60
41220;DHT22;26951;47.338;9.196;2022-07-23T07:32:08;19.10;79.90
41220;DHT22;26951;47.338;9.196;2022-07-23T07:34:52;19.10;79.20
41220;DHT22;26951;47.338;9.196;2022-07-23T07:37:37;19.00;79.50
41220;DHT22;26951;47.338;9.196;2022-07-23T07:40:21;19.00;79.10
41220;DHT22;26951;47.338;9.196;2022-07-23T07:43:05;19.00;78.70
41220;DHT22;26951;47.338;9.196;2022-07-23T07:45:49;19.00;78.70
41220;DHT22;26951;47.338;9.196;2022-07-23T07:48:33;19.00;78.50
41220;DHT22;26951;47.338;9.196;2022-07-23T07:51:17;19.00;78.70
41220;DHT22;26951;47.338;9.196;2022-07-23T07:54:02;19.00;79.40
41220;DHT22;26951;47.338;9.196;2022-07-23T07:56:46;19.00;79.80
41220;DHT22;26951;47.338;9.196;2022-07-23T07:59:30;19.00;79.90
41220;DHT22;26951;47.338;9.196;2022-07-23T08:02:14;19.00;80.00
41220;DHT22;26951;47.338;9.196;2022-07-23T08:04:58;19.00;79.90
41220;DHT22;26951;47.338;9.196;2022-07-23T08:07:42;19.00;79.90
41220;DHT22;26951;47.338;9.196;2022-07-23T08:10:27;19.00;80.30
41220;DHT22;26951;47.338;9.196;2022-07-23T08:13:13;19.10;78.90
41220;DHT22;26951;47.338;9.196;2022-07-23T08:15:58;19.10;79.50
41220;DHT22;26951;47.338;9.196;2022-07-23T08:18:43;19.10;79.60
41220;DHT22;26951;47.338;9.196;2022-07-23T08:21:27;19.20;79.90
41220;DHT22;26951;47.338;9.196;2022-07-23T08:24:11;19.20;80.00
41220;DHT22;26951;47.338;9.196;2022-07-23T08:26:55;19.20;80.30
41220;DHT22;26951;47.338;9.196;2022-07-23T08:29:39;19.30;81.00
41220;DHT22;26951;47.338;9.196;2022-07-23T08:32:23;19.30;81.20
41220;DHT22;26951;47.338;9.196;2022-07-23T08:35:07;19.30;81.30
41220;DHT22;26951;47.338;9.196;2022-07-23T08:37:51;19.30;80.60
41220;DHT22;26951;47.338;9.196;2022-07-23T08:40:38;19.30;80.70
41220;DHT22;26951;47.338;9.196;2022-07-23T08:43:28;19.30;80.40
41220;DHT22;26951;47.338;9.196;2022-07-23T08:46:13;19.30;80.60
41220;DHT22;26951;47.338;9.196;2022-07-23T08:48:58;19.20;80.40
41220;DHT22;26951;47.338;9.196;2022-07-23T08:51:43;19.20;80.30
41220;DHT22;26951;47.338;9.196;2022-07-23T08:54:27;19.20;80.10
41220;DHT22;26951;47.338;9.196;2022-07-23T08:57:11;19.10;80.70
41220;DHT22;26951;47.338;9.196;2022-07-23T08:59:56;19.10;80.70
41220;DHT22;26951;47.338;9.196;2022-07-23T09:02:41;19.10;80.60
41220;DHT22;26951;47.338;9.196;2022-07-23T09:05:25;19.00;81.10
41220;DHT22;26951;47.338;9.196;2022-07-23T09:08:10;19.00;82.00
41220;DHT22;26951;47.338;9.196;2022-07-23T09:10:56;19.00;82.60
41220;DHT22;26951;47.338;9.196;2022-07-23T09:13:51;19.00;85.00
41220;DHT22;26951;47.338;9.196;2022-07-23T09:16:42;19.00;85.00
41220;DHT22;26951;47.338;9.196;2022-07-23T09:19:28;19.00;82.40
41220;DHT22;26951;47.338;9.196;2022-07-23T09:22:26;19.00;84.00
41220;DHT22;26951;47.338;9.196;2022-07-23T09:27:57;19.00;83.60
41220;DHT22;26951;47.338;9.196;2022-07-23T09:30:41;19.00;80.70
41220;DHT22;26951;47.338;9.196;2022-07-23T09:33:33;19.00;80.10
41220;DHT22;26951;47.338;9.196;2022-07-23T09:36:30;19.00;80.10
41220;DHT22;26951;47.338;9.196;2022-07-23T09:39:15;19.00;80.70
41220;DHT22;26951;47.338;9.196;2022-07-23T09:42:16;19.00;80.80
41220;DHT22;26951;47.338;9.196;2022-07-23T09:45:01;19.10;80.90
41220;DHT22;26951;47.338;9.196;2022-07-23T09:47:46;19.10;82.80
41220;DHT22;26951;47.338;9.196;2022-07-23T09:50:31;19.10;82.60
41220;DHT22;26951;47.338;9.196;2022-07-23T09:53:24;19.20;83.30
41220;DHT22;26951;47.338;9.196;2022-07-23T09:56:13;19.20;83.60
41220;DHT22;26951;47.338;9.196;2022-07-23T09:59:00;19.20;83.60
41220;DHT22;26951;47.338;9.196;2022-07-23T10:01:55;19.20;83.70
41220;DHT22;26951;47.338;9.196;2022-07-23T10:04:40;19.20;82.90
41220;DHT22;26951;47.338;9.196;2022-07-23T10:07:26;19.20;82.80
41220;DHT22;26951;47.338;9.196;2022-07-23T10:10:11;19.20;82.80
41220;DHT22;26951;47.338;9.196;2022-07-23T10:12:57;19.30;82.90
41220;DHT22;26951;47.338;9.196;2022-07-23T10:15:41;19.30;82.20
41220;DHT22;26951;47.338;9.196;2022-07-23T10:18:26;19.40;82.10
41220;DHT22;26951;47.338;9.196;2022-07-23T10:21:12;19.50;82.70
41220;DHT22;26951;47.338;9.196;2022-07-23T10:30:20;19.80;82.40
41220;DHT22;26951;47.338;9.196;2022-07-23T10:36:03;20.00;83.00
41220;DHT22;26951;47.338;9.196;2022-07-23T10:39:22;20.10;83.90
41220;DHT22;26951;47.338;9.196;2022-07-23T10:42:15;20.10;79.10
41220;DHT22;26951;47.338;9.196;2022-07-23T10:45:00;20.20;80.40
41220;DHT22;26951;47.338;9.196;2022-07-23T10:47:44;20.30;79.80
41220;DHT22;26951;47.338;9.196;2022-07-23T10:50:29;20.30;81.20
41220;DHT22;26951;47.338;9.196;2022-07-23T10:53:18;20.50;81.40
41220;DHT22;26951;47.338;9.196;2022-07-23T10:56:03;20.50;81.00
41220;DHT22;26951;47.338;9.196;2022-07-23T10:58:50;20.70;80.90
41220;DHT22;26951;47.338;9.196;2022-07-23T11:01:40;20.80;80.30
41220;DHT22;26951;47.338;9.196;2022-07-23T11:04:47;20.90;79.90
41220;DHT22;26951;47.338;9.196;2022-07-23T11:07:33;21.10;78.60
41220;DHT22;26951;47.338;9.196;2022-07-23T11:10:38;21.20;77.30
41220;DHT22;26951;47.338;9.196;2022-07-23T11:16:15;21.40;75.70
41220;DHT22;26951;47.338;9.196;2022-07-23T11:19:03;21.50;76.80
41220;DHT22;26951;47.338;9.196;2022-07-23T11:21:49;21.60;74.60
41220;DHT22;26951;47.338;9.196;2022-07-23T11:24:50;21.60;74.90
41220;DHT22;26951;47.338;9.196;2022-07-23T11:27:43;21.70;69.40
41220;DHT22;26951;47.338;9.196;2022-07-23T11:36:02;22.40;68.20
41220;DHT22;26951;47.338;9.196;2022-07-23T11:38:50;22.50;67.50
41220;DHT22;26951;47.338;9.196;2022-07-23T11:41:45;22.60;65.70
41220;DHT22;26951;47.338;9.196;2022-07-23T11:44:32;22.70;64.40
41220;DHT22;26951;47.338;9.196;2022-07-23T11:47:22;22.80;64.20
41220;DHT22;26951;47.338;9.196;2022-07-23T11:50:08;22.90;65.40
41220;DHT22;26951;47.338;9.196;2022-07-23T11:52:53;23.00;66.70
41220;DHT22;26951;47.338;9.196;2022-07-23T11:55:38;23.10;63.70
41220;DHT22;26951;47.338;9.196;2022-07-23T11:58:22;23.20;64.00
41220;DHT22;26951;47.338;9.196;2022-07-23T12:01:06;23.30;63.20
41220;DHT22;26951;47.338;9.196;2022-07-23T12:03:51;23.50;64.20
41220;DHT22;26951;47.338;9.196;2022-07-23T12:06:38;23.60;62.00
41220;DHT22;26951;47.338;9.196;2022-07-23T12:09:22;23.80;60.60
41220;DHT22;26951;47.338;9.196;2022-07-23T12:12:07;23.90;62.30
41220;DHT22;26951;47.338;9.196;2022-07-23T12:14:52;24.00;59.10
41220;DHT22;26951;47.338;9.196;2022-07-23T12:17:38;24.20;60.90
41220;DHT22;26951;47.338;9.196;2022-07-23T12:20:31;24.30;62.10
41220;DHT22;26951;47.338;9.196;2022-07-23T12:23:17;24.50;60.20
41220;DHT22;26951;47.338;9.196;2022-07-23T12:26:03;24.60;59.10
41220;DHT22;26951;47.338;9.196;2022-07-23T12:28:51;24.80;56.30
41220;DHT22;26951;47.338;9.196;2022-07-23T12:31:35;24.90;55.80
41220;DHT22;26951;47.338;9.196;2022-07-23T12:34:21;24.90;55.90
41220;DHT22;26951;47.338;9.196;2022-07-23T12:37:05;25.00;57.00
41220;DHT22;26951;47.338;9.196;2022-07-23T12:39:49;25.00;57.80
41220;DHT22;26951;47.338;9.196;2022-07-23T12:42:42;25.10;56.60
41220;DHT22;26951;47.338;9.196;2022-07-23T12:45:28;25.30;57.40
41220;DHT22;26951;47.338;9.196;2022-07-23T12:51:14;25.50;53.50
41220;DHT22;26951;47.338;9.196;2022-07-23T12:54:08;25.50;54.30
41220;DHT22;26951;47.338;9.196;2022-07-23T12:56:52;25.50;53.80
41220;DHT22;26951;47.338;9.196;2022-07-23T12:59:36;25.50;53.90
41220;DHT22;26951;47.338;9.196;2022-07-23T13:02:22;25.50;52.50
41220;DHT22;26951;47.338;9.196;2022-07-23T13:05:06;25.40;55.20
41220;DHT22;26951;47.338;9.196;2022-07-23T13:07:50;25.50;55.20
41220;DHT22;26951;47.338;9.196;2022-07-23T13:10:34;25.60;54.40
41220;DHT22;26951;47.338;9.196;2022-07-23T13:13:26;25.80;55.70
41220;DHT22;26951;47.338;9.196;2022-07-23T13:16:11;25.90;55.20
41220;DHT22;26951;47.338;9.196;2022-07-23T13:18:55;26.10;57.40
41220;DHT22;26951;47.338;9.196;2022-07-23T13:21:41;26.20;53.60
41220;DHT22;26951;47.338;9.196;2022-07-23T13:24:25;26.30;56.20
41220;DHT22;26951;47.338;9.196;2022-07-23T13:27:09;26.40;56.50
41220;DHT22;26951;47.338;9.196;2022-07-23T13:29:53;26.50;55.60
41220;DHT22;26951;47.338;9.196;2022-07-23T13:32:37;26.60;54.20
41220;DHT22;26951;47.338;9.196;2022-07-23T13:35:21;26.60;53.00
41220;DHT22;26951;47.338;9.196;2022-07-23T13:38:06;26.60;53.00
41220;DHT22;26951;47.338;9.196;2022-07-23T13:40:54;26.60;54.00
41220;DHT22;26951;47.338;9.196;2022-07-23T13:43:37;26.60;53.10
41220;DHT22;26951;47.338;9.196;2022-07-23T13:46:22;26.70;52.00
41220;DHT22;26951;47.338;9.196;2022-07-23T13:49:06;26.70;51.80
41220;DHT22;26951;47.338;9.196;2022-07-23T13:51:50;26.70;53.40
41220;DHT22;26951;47.338;9.196;2022-07-23T13:54:35;26.70;53.20
41220;DHT22;26951;47.338;9.196;2022-07-23T13:57:19;26.70;53.00
41220;DHT22;26951;47.338;9.196;2022-07-23T14:00:05;26.80;53.40
41220;DHT22;26951;47.338;9.196;2022-07-23T14:02:51;26.80;52.70
41220;DHT22;26951;47.338;9.196;2022-07-23T14:05:35;26.80;50.90
41220;DHT22;26951;47.338;9.196;2022-07-23T14:08:19;26.80;50.00
41220;DHT22;26951;47.338;9.196;2022-07-23T14:11:03;26.70;51.60
41220;DHT22;26951;47.338;9.196;2022-07-23T14:13:48;26.60;51.20
41220;DHT22;26951;47.338;9.196;2022-07-23T14:16:32;26.60;49.40
41220;DHT22;26951;47.338;9.196;2022-07-23T14:19:16;26.50;49.90
41220;DHT22;26951;47.338;9.196;2022-07-23T14:22:00;26.40;49.00
41220;DHT22;26951;47.338;9.196;2022-07-23T14:24:44;26.30;51.50
41220;DHT22;26951;47.338;9.196;2022-07-23T14:27:28;26.20;51.60
41220;DHT22;26951;47.338;9.196;2022-07-23T14:30:13;26.20;50.60
41220;DHT22;26951;47.338;9.196;2022-07-23T14:32:58;26.20;52.00
41220;DHT22;26951;47.338;9.196;2022-07-23T14:35:42;26.20;51.00
41220;DHT22;26951;47.338;9.196;2022-07-23T14:38:27;26.20;53.00
41220;DHT22;26951;47.338;9.196;2022-07-23T14:41:11;26.20;53.50
41220;DHT22;26951;47.338;9.196;2022-07-23T14:43:55;26.20;54.10
41220;DHT22;26951;47.338;9.196;2022-07-23T14:46:39;26.20;54.30
41220;DHT22;26951;47.338;9.196;2022-07-23T14:49:24;26.20;51.10
41220;DHT22;26951;47.338;9.196;2022-07-23T14:52:08;26.30;50.90
41220;DHT22;26951;47.338;9.196;2022-07-23T14:54:52;26.30;51.10
41220;DHT22;26951;47.338;9.196;2022-07-23T14:57:36;26.30;50.90
41220;DHT22;26951;47.338;9.196;2022-07-23T15:00:20;26.40;51.80
41220;DHT22;26951;47.338;9.196;2022-07-23T15:03:05;26.50;51.50
41220;DHT22;26951;47.338;9.196;2022-07-23T15:05:49;26.50;50.00
41220;DHT22;26951;47.338;9.196;2022-07-23T15:08:33;26.60;50.90
41220;DHT22;26951;47.338;9.196;2022-07-23T15:11:17;26.60;51.00
41220;DHT22;26951;47.338;9.196;2022-07-23T15:14:02;26.60;52.30
41220;DHT22;26951;47.338;9.196;2022-07-23T15:16:47;26.60;51.60
41220;DHT22;26951;47.338;9.196;2022-07-23T15:19:31;26.60;48.00
41220;DHT22;26951;47.338;9.196;2022-07-23T15:22:15;26.60;46.80
41220;DHT22;26951;47.338;9.196;2022-07-23T15:25:00;26.60;47.90
41220;DHT22;26951;47.338;9.196;2022-07-23T15:27:44;26.60;48.10
41220;DHT22;26951;47.338;9.196;2022-07-23T15:30:28;26.60;47.90
41220;DHT22;26951;47.338;9.196;2022-07-23T15:33:12;26.60;48.20
41220;DHT22;26951;47.338;9.196;2022-07-23T15:35:56;26.50;48.90
41220;DHT22;26951;47.338;9.196;2022-07-23T15:38:42;26.40;48.80
41220;DHT22;26951;47.338;9.196;2022-07-23T15:41:26;26.40;49.70
41220;DHT22;26951;47.338;9.196;2022-07-23T15:44:10;26.30;49.90
41220;DHT22;26951;47.338;9.196;2022-07-23T15:46:56;26.20;49.40
41220;DHT22;26951;47.338;9.196;2022-07-23T15:49:41;26.20;48.70
41220;DHT22;26951;47.338;9.196;2022-07-23T15:52:25;26.20;48.20
41220;DHT22;26951;47.338;9.196;2022-07-23T15:55:09;26.10;47.30
41220;DHT22;26951;47.338;9.196;2022-07-23T15:57:54;26.20;48.00
41220;DHT22;26951;47.338;9.196;2022-07-23T16:00:38;26.10;47.80
41220;DHT22;26951;47.338;9.196;2022-07-23T16:03:23;26.10;47.60
41220;DHT22;26951;47.338;9.196;2022-07-23T16:06:07;26.10;47.10
41220;DHT22;26951;47.338;9.196;2022-07-23T16:08:51;26.10;48.90
41220;DHT22;26951;47.338;9.196;2022-07-23T16:11:35;26.00;47.50
41220;DHT22;26951;47.338;9.196;2022-07-23T16:14:20;25.90;49.20
41220;DHT22;26951;47.338;9.196;2022-07-23T16:17:04;25.90;50.30
41220;DHT22;26951;47.338;9.196;2022-07-23T16:19:48;25.90;49.90
41220;DHT22;26951;47.338;9.196;2022-07-23T16:22:33;25.90;49.20
41220;DHT22;26951;47.338;9.196;2022-07-23T16:25:17;25.90;47.90
41220;DHT22;26951;47.338;9.196;2022-07-23T16:28:02;26.00;48.40
41220;DHT22;26951;47.338;9.196;2022-07-23T16:30:46;26.10;49.00
41220;DHT22;26951;47.338;9.196;2022-07-23T16:33:30;26.10;48.10
41220;DHT22;26951;47.338;9.196;2022-07-23T16:36:14;26.10;48.00
41220;DHT22;26951;47.338;9.196;2022-07-23T16:38:59;26.10;48.60
41220;DHT22;26951;47.338;9.196;2022-07-23T16:41:43;26.20;49.40
41220;DHT22;26951;47.338;9.196;2022-07-23T16:44:28;26.10;48.70
41220;DHT22;26951;47.338;9.196;2022-07-23T16:47:12;26.00;48.90
41220;DHT22;26951;47.338;9.196;2022-07-23T16:49:56;25.90;49.90
41220;DHT22;26951;47.338;9.196;2022-07-23T16:52:41;25.80;49.50
41220;DHT22;26951;47.338;9.196;2022-07-23T16:55:25;25.80;49.90
41220;DHT22;26951;47.338;9.196;2022-07-23T16:58:09;25.80;49.30
41220;DHT22;26951;47.338;9.196;2022-07-23T17:00:53;25.80;49.90
41220;DHT22;26951;47.338;9.196;2022-07-23T17:03:38;25.70;49.10
41220;DHT22;26951;47.338;9.196;2022-07-23T17:06:22;25.60;48.40
41220;DHT22;26951;47.338;9.196;2022-07-23T17:09:06;25.50;48.30
41220;DHT22;26951;47.338;9.196;2022-07-23T17:11:50;25.50;49.30
41220;DHT22;26951;47.338;9.196;2022-07-23T17:14:34;25.40;51.00
41220;DHT22;26951;47.338;9.196;2022-07-23T17:17:19;25.20;50.90
41220;DHT22;26951;47.338;9.196;2022-07-23T17:20:04;25.20;50.80
41220;DHT22;26951;47.338;9.196;2022-07-23T17:22:50;25.20;52.00
41220;DHT22;26951;47.338;9.196;2022-07-23T17:25:34;25.10;51.30
41220;DHT22;26951;47.338;9.196;2022-07-23T17:28:18;25.10;52.30
41220;DHT22;26951;47.338;9.196;2022-07-23T17:31:02;25.10;52.20
41220;DHT22;26951;47.338;9.196;2022-07-23T17:33:47;25.10;52.60
41220;DHT22;26951;47.338;9.196;2022-07-23T17:36:33;25.00;53.20
41220;DHT22;26951;47.338;9.196;2022-07-23T17:39:17;24.90;52.60
41220;DHT22;26951;47.338;9.196;2022-07-23T17:42:02;24.80;53.00
41220;DHT22;26951;47.338;9.196;2022-07-23T17:44:46;24.80;53.50
41220;DHT22;26951;47.338;9.196;2022-07-23T17:47:30;24.70;54.20
41220;DHT22;26951;47.338;9.196;2022-07-23T17:50:15;24.60;54.80